Time;durP1;ratioP1;P1;durP2;ratioP2;P2;SDS_P1;SDS_P2;PMS_P1;PMS_P2;Temp;Humidity;BMP_temperature;BMP_pressure;BME280_temperature;BME280_humidity;BME280_pressure;Samples;Min_cycle;Max_cycle;Signal;HPM_P1;HPM_P2
2023/10/12 00:04:50;;;;;;;41.13;22.90;;;;;;;;;;10141215;28;20344;-71
2023/10/12 00:09:48;;;;;;;41.53;24.77;;;;;;;;;;10141836;28;20044;-73
2023/10/12 00:14:41;;;;;;;32.87;22.43;;;;;;;;;;10132542;28;20036;-72
2023/10/12 00:19:33;;;;;;;36.35;22.83;;;;;;;;;;10134803;28;20075;-73
2023/10/12 00:24:25;;;;;;;41.58;21.40;;;;;;;;;;10151227;28;20037;-73
2023/10/12 00:29:18;;;;;;;29.38;22.10;;;;;;;;;;10151974;28;20084;-71
2023/10/12 00:34:12;;;;;;;39.17;22.48;;;;;;;;;;10151117;28;20086;-73
2023/10/12 00:39:09;;;;;;;31.17;20.10;;;;;;;;;;10151688;28;20052;-73
2023/10/12 00:49:19;;;;;;;38.95;21.55;;;;;;;;;;10147696;28;20482;-73
2023/10/12 00:54:10;;;;;;;33.00;20.80;;;;;;;;;;10146788;28;20040;-72
2023/10/12 00:59:03;;;;;;;27.25;21.15;;;;;;;;;;10146561;28;20489;-73
2023/10/12 01:03:55;;;;;;;39.45;21.75;;;;;;;;;;10130892;28;20174;-72
2023/10/12 01:08:47;;;;;;;33.40;20.67;;;;;;;;;;10146725;28;20090;-72
2023/10/12 01:13:43;;;;;;;29.85;19.98;;;;;;;;;;10146490;28;20055;-72
2023/10/12 01:18:35;;;;;;;33.35;20.25;;;;;;;;;;10107029;28;20049;-74
2023/10/12 01:23:27;;;;;;;31.05;20.95;;;;;;;;;;10147009;28;20053;-74
2023/10/12 01:28:20;;;;;;;32.45;21.45;;;;;;;;;;10146507;28;20090;-74
2023/10/12 01:33:13;;;;;;;29.15;20.30;;;;;;;;;;10128539;28;20128;-71
2023/10/12 01:38:08;;;;;;;30.70;20.65;;;;;;;;;;10113518;28;20431;-73
2023/10/12 01:43:01;;;;;;;33.92;21.27;;;;;;;;;;10145407;28;20068;-72
2023/10/12 01:48:05;;;;;;;31.83;20.15;;;;;;;;;;10127302;28;20054;-74
2023/10/12 01:52:58;;;;;;;26.75;19.88;;;;;;;;;;10127335;28;20041;-73
2023/10/12 01:57:53;;;;;;;31.92;18.80;;;;;;;;;;10129075;28;20098;-73
2023/10/12 02:02:53;;;;;;;27.30;17.52;;;;;;;;;;10115548;28;20053;-72
2023/10/12 02:07:45;;;;;;;24.27;19.15;;;;;;;;;;10127835;28;20048;-73
2023/10/12 02:12:40;;;;;;;27.50;18.48;;;;;;;;;;10144495;28;20036;-71
2023/10/12 02:17:35;;;;;;;29.17;18.92;;;;;;;;;;10145306;28;20047;-73
2023/10/12 02:22:30;;;;;;;37.13;21.77;;;;;;;;;;10124731;28;20055;-74
2023/10/12 02:27:23;;;;;;;27.27;18.92;;;;;;;;;;10144150;28;20072;-73
2023/10/12 02:32:18;;;;;;;23.83;18.73;;;;;;;;;;10143472;28;20039;-73
2023/10/12 02:47:22;;;;;;;25.63;17.02;;;;;;;;;;10142229;28;20033;-72
2023/10/12 02:52:16;;;;;;;26.80;18.90;;;;;;;;;;10142532;28;20082;-73
2023/10/12 02:57:09;;;;;;;29.85;20.98;;;;;;;;;;10109159;28;20055;-72
2023/10/12 03:02:18;;;;;;;35.17;22.02;;;;;;;;;;10132402;28;20114;-73
2023/10/12 03:07:11;;;;;;;31.88;23.60;;;;;;;;;;10140381;28;20064;-71
2023/10/12 03:12:04;;;;;;;29.90;19.55;;;;;;;;;;10143058;28;20055;-71
2023/10/12 03:17:02;;;;;;;28.60;20.85;;;;;;;;;;10142846;28;20115;-72
2023/10/12 03:22:03;;;;;;;36.55;22.75;;;;;;;;;;10141905;28;20417;-73
2023/10/12 03:27:10;;;;;;;34.30;22.45;;;;;;;;;;10139861;28;20067;-74
2023/10/12 03:32:04;;;;;;;33.53;24.58;;;;;;;;;;10137961;28;20128;-73
2023/10/12 03:37:01;;;;;;;32.30;24.55;;;;;;;;;;10133272;28;20044;-73
2023/10/12 03:41:55;;;;;;;39.55;25.88;;;;;;;;;;10139452;28;20071;-72
2023/10/12 03:46:56;;;;;;;37.92;26.85;;;;;;;;;;10142165;28;20075;-72
2023/10/12 03:51:49;;;;;;;29.92;20.70;;;;;;;;;;10140764;28;20063;-73
2023/10/12 03:56:41;;;;;;;30.90;18.73;;;;;;;;;;10141996;28;20041;-74
2023/10/12 04:01:39;;;;;;;26.60;17.67;;;;;;;;;;10149105;28;20470;-74
2023/10/12 04:06:55;;;;;;;25.60;17.70;;;;;;;;;;10141291;28;20044;-73
2023/10/12 04:11:48;;;;;;;31.60;18.77;;;;;;;;;;10140063;28;20049;-73
2023/10/12 04:16:40;;;;;;;22.05;17.40;;;;;;;;;;10149533;28;20421;-73
2023/10/12 04:21:57;;;;;;;23.05;18.50;;;;;;;;;;10149881;28;20098;-73
2023/10/12 04:32:27;;;;;;;25.05;17.48;;;;;;;;;;10102814;28;20097;-72
2023/10/12 04:37:22;;;;;;;30.08;20.55;;;;;;;;;;10148623;28;20110;-73
2023/10/12 04:42:20;;;;;;;28.52;20.08;;;;;;;;;;10147803;28;20059;-73
2023/10/12 04:47:19;;;;;;;29.23;22.30;;;;;;;;;;10144346;28;20463;-73
2023/10/12 05:02:15;;;;;;;47.58;27.42;;;;;;;;;;10144195;28;20056;-73
2023/10/12 05:12:10;;;;;;;53.95;34.88;;;;;;;;;;10148341;28;20044;-73
2023/10/12 05:17:03;;;;;;;63.42;37.40;;;;;;;;;;10146703;28;20090;-72
2023/10/12 05:21:58;;;;;;;53.00;35.58;;;;;;;;;;10146077;28;20045;-73
2023/10/12 05:28:13;;;;;;;59.83;36.25;;;;;;;;;;10138062;28;20098;-73
2023/10/12 05:32:56;;;;;;;52.63;33.00;;;;;;;;;;10126183;28;20127;-73
2023/10/12 05:37:37;;;;;;;43.28;31.10;;;;;;;;;;10132191;28;20055;-73
2023/10/12 05:42:33;;;;;;;47.80;31.58;;;;;;;;;;10137876;28;20420;-73
2023/10/12 05:47:31;;;;;;;49.90;30.63;;;;;;;;;;10146811;28;20045;-71
2023/10/12 05:52:26;;;;;;;48.50;31.13;;;;;;;;;;10147891;28;20047;-74
2023/10/12 05:57:19;;;;;;;46.38;28.27;;;;;;;;;;10148216;28;20558;-74
2023/10/12 06:02:11;;;;;;;40.90;25.63;;;;;;;;;;10145417;28;20355;-73
2023/10/12 06:07:03;;;;;;;36.75;26.90;;;;;;;;;;10145186;28;20536;-75
2023/10/12 06:11:56;;;;;;;39.47;25.48;;;;;;;;;;10126204;28;20049;-73
2023/10/12 06:16:54;;;;;;;29.38;21.80;;;;;;;;;;10145045;28;20453;-73
2023/10/12 06:21:51;;;;;;;30.60;22.98;;;;;;;;;;10142323;28;20067;-74
2023/10/12 06:26:44;;;;;;;32.75;23.30;;;;;;;;;;10140799;28;20044;-74
2023/10/12 06:31:36;;;;;;;34.08;24.02;;;;;;;;;;10137827;28;20131;-73
2023/10/12 06:36:37;;;;;;;30.95;21.35;;;;;;;;;;10140341;28;20041;-75
2023/10/12 06:46:43;;;;;;;27.40;21.48;;;;;;;;;;10139658;28;20048;-74
2023/10/12 06:51:35;;;;;;;37.07;23.07;;;;;;;;;;10139536;28;20044;-74
2023/10/12 06:56:27;;;;;;;29.50;21.23;;;;;;;;;;10138055;28;20872;-74
2023/10/12 07:01:26;;;;;;;29.88;21.23;;;;;;;;;;10138568;28;20149;-75
2023/10/12 07:06:18;;;;;;;30.75;21.23;;;;;;;;;;10130185;28;20062;-74
2023/10/12 07:11:11;;;;;;;36.25;20.05;;;;;;;;;;10139354;28;20048;-75
2023/10/12 07:16:06;;;;;;;29.48;19.08;;;;;;;;;;10139220;28;20127;-73
2023/10/12 07:20:59;;;;;;;29.88;21.38;;;;;;;;;;10138198;28;20048;-75
2023/10/12 07:25:58;;;;;;;27.27;21.08;;;;;;;;;;10133126;28;20082;-75
2023/10/12 07:31:05;;;;;;;28.13;20.08;;;;;;;;;;10135616;28;20163;-73
2023/10/12 07:36:11;;;;;;;30.30;21.23;;;;;;;;;;10130339;28;20044;-74
2023/10/12 07:41:09;;;;;;;35.00;24.10;;;;;;;;;;10136811;28;21199;-74
2023/10/12 07:46:14;;;;;;;32.83;21.53;;;;;;;;;;10133699;28;20049;-73
2023/10/12 07:51:24;;;;;;;32.78;22.70;;;;;;;;;;10130627;28;20041;-74
2023/10/12 07:56:17;;;;;;;31.73;21.55;;;;;;;;;;10129562;28;20037;-74
2023/10/12 08:11:34;;;;;;;29.20;21.30;;;;;;;;;;10134705;28;20052;-75
2023/10/12 08:16:28;;;;;;;41.95;23.85;;;;;;;;;;10138202;28;20044;-75
2023/10/12 08:26:34;;;;;;;40.67;22.15;;;;;;;;;;10136027;28;20049;-75
2023/10/12 08:31:30;;;;;;;31.98;23.85;;;;;;;;;;10134884;28;20044;-76
2023/10/12 08:46:13;;;;;;;40.57;22.17;;;;;;;;;;10143876;28;20488;-75
2023/10/12 08:51:09;;;;;;;33.08;23.42;;;;;;;;;;10144087;28;20052;-72
2023/10/12 08:56:06;;;;;;;37.08;23.83;;;;;;;;;;10112342;28;20132;-72
2023/10/12 09:05:51;;;;;;;34.20;21.13;;;;;;;;;;10141035;28;20049;-72
2023/10/12 09:11:19;;;;;;;29.20;22.17;;;;;;;;;;10142834;28;20047;-72
2023/10/12 09:16:09;;;;;;;36.35;22.08;;;;;;;;;;10131174;28;20048;-72
2023/10/12 09:31:00;;;;;;;29.13;17.23;;;;;;;;;;10138906;28;20566;-72
2023/10/12 09:36:00;;;;;;;22.98;19.35;;;;;;;;;;10139850;28;20044;-72
2023/10/12 09:40:53;;;;;;;29.20;19.10;;;;;;;;;;10133576;28;20339;-71
2023/10/12 09:45:47;;;;;;;33.22;21.10;;;;;;;;;;10123006;28;20059;-69
2023/10/12 09:50:40;;;;;;;23.65;19.77;;;;;;;;;;10108531;28;20048;-72
2023/10/12 09:55:33;;;;;;;35.97;22.17;;;;;;;;;;10139764;28;20463;-73
2023/10/12 10:00:28;;;;;;;28.73;21.63;;;;;;;;;;10108547;28;20135;-72
2023/10/12 10:10:33;;;;;;;36.75;23.80;;;;;;;;;;10110574;28;20029;-72
2023/10/12 10:15:36;;;;;;;35.90;22.58;;;;;;;;;;10109421;28;20107;-72
2023/10/12 10:25:21;;;;;;;31.67;21.30;;;;;;;;;;10139845;28;20156;-72
2023/10/12 10:30:28;;;;;;;36.92;23.92;;;;;;;;;;10139119;28;20094;-72
2023/10/12 10:35:22;;;;;;;32.08;23.50;;;;;;;;;;10139642;28;20138;-72
2023/10/12 10:40:19;;;;;;;35.70;24.48;;;;;;;;;;10139999;28;20421;-73
2023/10/12 10:45:15;;;;;;;34.97;26.50;;;;;;;;;;10139884;28;20055;-71
2023/10/12 10:50:15;;;;;;;41.95;25.73;;;;;;;;;;10136558;28;20157;-72
2023/10/12 10:55:10;;;;;;;39.13;27.00;;;;;;;;;;10134179;28;20072;-73
2023/10/12 11:00:10;;;;;;;45.60;24.92;;;;;;;;;;10128226;28;20053;-72
2023/10/12 11:05:02;;;;;;;43.67;28.08;;;;;;;;;;10137904;28;20052;-71
2023/10/12 11:15:00;;;;;;;36.72;25.98;;;;;;;;;;10137447;28;20388;-71
2023/10/12 11:19:52;;;;;;;30.92;23.35;;;;;;;;;;10137584;28;20063;-73
2023/10/12 11:24:49;;;;;;;26.27;22.10;;;;;;;;;;10138237;28;20070;-72
2023/10/12 11:29:50;;;;;;;34.65;22.60;;;;;;;;;;10137594;28;20443;-73
2023/10/12 11:34:52;;;;;;;38.58;22.58;;;;;;;;;;10137707;28;20535;-73
2023/10/12 11:39:46;;;;;;;29.27;22.27;;;;;;;;;;10119294;28;20078;-73
2023/10/12 11:44:42;;;;;;;32.58;19.67;;;;;;;;;;10135889;28;20045;-72
2023/10/12 11:49:55;;;;;;;28.60;22.10;;;;;;;;;;10137295;28;20367;-72
2023/10/12 11:54:48;;;;;;;41.05;22.48;;;;;;;;;;10127803;28;20076;-73
2023/10/12 11:59:42;;;;;;;45.38;23.13;;;;;;;;;;10136751;28;20135;-73
2023/10/12 12:04:39;;;;;;;37.30;24.90;;;;;;;;;;10137227;28;20466;-72
2023/10/12 12:09:48;;;;;;;34.90;21.90;;;;;;;;;;10111124;28;20059;-73
2023/10/12 12:14:46;;;;;;;35.20;23.30;;;;;;;;;;10136081;28;20076;-72
2023/10/12 12:19:41;;;;;;;34.42;21.67;;;;;;;;;;10138096;28;20044;-71
2023/10/12 12:24:33;;;;;;;34.63;23.15;;;;;;;;;;10118834;28;20326;-71
2023/10/12 12:29:26;;;;;;;34.88;21.83;;;;;;;;;;10143417;28;20041;-72
2023/10/12 12:34:38;;;;;;;32.63;21.38;;;;;;;;;;10145304;28;20048;-72
2023/10/12 12:39:32;;;;;;;32.78;22.67;;;;;;;;;;10144844;28;20158;-72
2023/10/12 12:44:24;;;;;;;34.47;21.88;;;;;;;;;;10137802;28;20086;-70
2023/10/12 12:49:16;;;;;;;45.47;22.63;;;;;;;;;;10140442;28;20045;-72
2023/10/12 12:54:08;;;;;;;30.08;19.77;;;;;;;;;;10143678;28;20052;-72
2023/10/12 12:59:00;;;;;;;27.13;20.98;;;;;;;;;;10147651;28;21921;-72
2023/10/12 13:03:55;;;;;;;28.95;19.85;;;;;;;;;;10156189;28;20056;-73
2023/10/12 13:08:48;;;;;;;26.77;18.65;;;;;;;;;;10153474;28;20135;-72
2023/10/12 13:13:39;;;;;;;35.63;20.90;;;;;;;;;;10143195;28;20124;-71
2023/10/12 13:18:35;;;;;;;26.10;19.92;;;;;;;;;;10141837;28;20119;-70
2023/10/12 13:23:27;;;;;;;28.25;20.67;;;;;;;;;;10141170;28;20048;-70
2023/10/12 13:28:19;;;;;;;26.40;20.52;;;;;;;;;;10147377;28;20052;-70
2023/10/12 13:33:11;;;;;;;26.35;20.38;;;;;;;;;;10143283;28;20072;-72
2023/10/12 13:38:05;;;;;;;26.10;20.00;;;;;;;;;;10143995;28;20123;-71
2023/10/12 13:43:15;;;;;;;28.33;20.17;;;;;;;;;;10144089;28;20128;-71
2023/10/12 13:48:10;;;;;;;29.75;17.85;;;;;;;;;;10134229;28;20431;-72
2023/10/12 13:53:03;;;;;;;26.83;18.65;;;;;;;;;;10141046;28;20056;-72
2023/10/12 13:58:00;;;;;;;23.67;19.30;;;;;;;;;;10141140;28;20537;-72
2023/10/12 14:02:58;;;;;;;33.83;19.88;;;;;;;;;;10138406;28;20048;-71
2023/10/12 14:07:54;;;;;;;33.38;20.00;;;;;;;;;;10134694;28;20037;-71
2023/10/12 14:12:45;;;;;;;31.65;18.98;;;;;;;;;;10144323;28;20355;-71
2023/10/12 14:17:37;;;;;;;30.63;19.75;;;;;;;;;;10139272;28;20136;-72
2023/10/12 14:22:29;;;;;;;27.05;20.15;;;;;;;;;;10139458;28;20044;-71
2023/10/12 14:27:21;;;;;;;28.55;22.15;;;;;;;;;;10140621;28;20036;-72
2023/10/12 14:32:13;;;;;;;25.63;18.13;;;;;;;;;;10141309;28;20459;-71
2023/10/12 14:37:13;;;;;;;36.08;20.38;;;;;;;;;;10138375;28;20046;-69
2023/10/12 14:42:06;;;;;;;24.75;20.75;;;;;;;;;;10137823;28;20044;-72
2023/10/12 14:46:58;;;;;;;36.67;18.95;;;;;;;;;;10139060;28;20052;-71
2023/10/12 14:51:50;;;;;;;29.35;19.58;;;;;;;;;;10134650;28;20044;-72
2023/10/12 14:56:43;;;;;;;34.20;22.38;;;;;;;;;;10138158;28;20029;-74
2023/10/12 15:01:34;;;;;;;27.00;20.38;;;;;;;;;;10139130;28;20113;-72
2023/10/12 15:06:31;;;;;;;29.50;21.20;;;;;;;;;;10135987;28;20063;-73
2023/10/12 15:11:25;;;;;;;32.87;21.27;;;;;;;;;;10139178;28;20127;-70
2023/10/12 15:16:18;;;;;;;30.05;19.17;;;;;;;;;;10136502;28;20486;-72
2023/10/12 15:21:12;;;;;;;36.67;22.63;;;;;;;;;;10137395;28;20059;-71
2023/10/12 15:26:22;;;;;;;30.83;19.90;;;;;;;;;;10134847;28;20461;-71
2023/10/12 15:31:16;;;;;;;25.48;19.85;;;;;;;;;;10134231;28;20036;-73
2023/10/12 15:36:14;;;;;;;26.45;20.50;;;;;;;;;;10136647;28;20052;-72
2023/10/12 15:41:06;;;;;;;30.88;20.83;;;;;;;;;;10135756;28;20044;-71
2023/10/12 15:45:58;;;;;;;33.85;20.52;;;;;;;;;;10137457;28;20050;-69
2023/10/12 15:50:50;;;;;;;32.25;19.45;;;;;;;;;;10137391;28;20048;-71
2023/10/12 15:55:44;;;;;;;25.13;18.75;;;;;;;;;;10137841;28;20122;-71
2023/10/12 16:00:36;;;;;;;27.30;21.02;;;;;;;;;;10137188;28;20127;-71
2023/10/12 16:05:29;;;;;;;22.30;14.40;;;;;;;;;;10118575;28;20062;-71
2023/10/12 16:10:21;;;;;;;25.67;15.68;;;;;;;;;;10138270;28;20056;-70
2023/10/12 16:15:14;;;;;;;20.88;15.63;;;;;;;;;;10137233;28;20371;-70
2023/10/12 16:20:09;;;;;;;22.92;15.90;;;;;;;;;;10135057;28;20097;-72
2023/10/12 16:25:06;;;;;;;25.67;15.98;;;;;;;;;;10136272;28;20127;-72
2023/10/12 16:29:59;;;;;;;24.35;14.75;;;;;;;;;;10136572;28;20477;-72
2023/10/12 16:34:51;;;;;;;25.08;15.43;;;;;;;;;;10135985;28;20049;-71
2023/10/12 16:39:45;;;;;;;28.70;16.42;;;;;;;;;;10134746;28;20475;-72
2023/10/12 16:44:36;;;;;;;26.27;16.63;;;;;;;;;;10134201;28;20094;-72
2023/10/12 16:49:31;;;;;;;20.80;15.35;;;;;;;;;;10137211;28;20044;-72
2023/10/12 16:54:22;;;;;;;19.65;15.90;;;;;;;;;;10135857;28;20044;-72
2023/10/12 16:59:18;;;;;;;25.52;18.27;;;;;;;;;;10104306;28;20041;-71
2023/10/12 17:04:32;;;;;;;28.00;18.13;;;;;;;;;;10138893;28;20060;-68
2023/10/12 17:09:25;;;;;;;35.25;20.52;;;;;;;;;;10140230;28;20044;-68
2023/10/12 17:14:18;;;;;;;26.27;18.58;;;;;;;;;;10140618;28;20033;-68
2023/10/12 17:19:10;;;;;;;28.10;18.45;;;;;;;;;;10128025;28;20051;-69
2023/10/12 17:24:05;;;;;;;26.65;18.90;;;;;;;;;;10145167;28;20041;-70
2023/10/12 17:28:57;;;;;;;26.85;19.20;;;;;;;;;;10142589;28;20053;-67
2023/10/12 17:33:49;;;;;;;30.48;20.70;;;;;;;;;;10145069;28;20052;-67
2023/10/12 17:38:44;;;;;;;30.10;20.75;;;;;;;;;;10144057;28;20048;-68
2023/10/12 17:43:36;;;;;;;32.67;17.38;;;;;;;;;;10143795;28;20424;-67
2023/10/12 17:48:28;;;;;;;33.20;20.70;;;;;;;;;;10143401;28;20443;-67
2023/10/12 17:53:21;;;;;;;32.22;19.50;;;;;;;;;;10140340;28;20040;-67
2023/10/12 17:58:14;;;;;;;38.22;21.80;;;;;;;;;;10139629;28;20043;-67
2023/10/12 18:03:06;;;;;;;31.33;19.67;;;;;;;;;;10139752;28;20049;-66
2023/10/12 18:07:58;;;;;;;29.08;19.75;;;;;;;;;;10140835;28;20084;-67
2023/10/12 18:12:52;;;;;;;30.80;19.35;;;;;;;;;;10139473;28;20079;-66
2023/10/12 18:17:44;;;;;;;37.40;23.65;;;;;;;;;;10120645;28;20049;-63
2023/10/12 18:22:36;;;;;;;29.75;21.00;;;;;;;;;;10140654;28;20040;-68
2023/10/12 18:27:28;;;;;;;27.45;21.30;;;;;;;;;;10142000;28;20110;-68
2023/10/12 18:32:21;;;;;;;31.95;20.52;;;;;;;;;;10142945;28;20041;-66
2023/10/12 18:37:14;;;;;;;25.70;20.48;;;;;;;;;;10141855;28;20063;-67
2023/10/12 18:42:06;;;;;;;34.33;23.08;;;;;;;;;;10142681;28;20056;-68
2023/10/12 18:46:58;;;;;;;34.33;22.85;;;;;;;;;;10134072;28;20045;-67
2023/10/12 18:51:50;;;;;;;32.92;22.30;;;;;;;;;;10106066;28;20101;-67
2023/10/12 18:56:41;;;;;;;33.55;24.38;;;;;;;;;;10139349;28;20047;-68
2023/10/12 19:01:33;;;;;;;40.22;22.42;;;;;;;;;;10142093;28;20045;-65
2023/10/12 19:06:26;;;;;;;33.30;22.95;;;;;;;;;;10143317;28;20041;-67
2023/10/12 19:11:18;;;;;;;30.95;23.25;;;;;;;;;;10143074;28;20041;-67
2023/10/12 19:16:15;;;;;;;37.65;22.40;;;;;;;;;;10142973;28;20131;-66
2023/10/12 19:21:07;;;;;;;32.90;23.50;;;;;;;;;;10143916;28;20123;-67
2023/10/12 19:25:59;;;;;;;26.73;20.05;;;;;;;;;;10143413;28;20437;-68
2023/10/12 19:30:56;;;;;;;40.35;23.25;;;;;;;;;;10143195;28;20055;-68
2023/10/12 19:35:48;;;;;;;30.63;24.27;;;;;;;;;;10142525;28;20075;-67
2023/10/12 19:40:41;;;;;;;27.02;20.83;;;;;;;;;;10144214;28;20387;-67
2023/10/12 19:45:36;;;;;;;36.72;22.45;;;;;;;;;;10143198;28;20469;-67
2023/10/12 19:50:29;;;;;;;35.08;22.92;;;;;;;;;;10143566;28;20072;-68
2023/10/12 19:55:21;;;;;;;31.48;24.25;;;;;;;;;;10139103;28;20414;-68
2023/10/12 20:05:37;;;;;;;32.92;22.75;;;;;;;;;;10130335;28;20379;-69
2023/10/12 20:10:29;;;;;;;35.75;24.65;;;;;;;;;;10140705;28;20040;-70
2023/10/12 20:15:21;;;;;;;36.33;25.77;;;;;;;;;;10141061;28;20036;-67
2023/10/12 20:20:18;;;;;;;36.60;25.23;;;;;;;;;;10140051;28;20051;-66
2023/10/12 20:25:12;;;;;;;36.78;23.42;;;;;;;;;;10139976;28;20040;-68
2023/10/12 20:30:04;;;;;;;30.92;22.75;;;;;;;;;;10140534;28;20045;-69
2023/10/12 20:34:56;;;;;;;44.05;24.42;;;;;;;;;;10140095;28;20067;-68
2023/10/12 20:39:48;;;;;;;36.75;24.83;;;;;;;;;;10142257;28;20044;-69
2023/10/12 20:44:41;;;;;;;36.78;25.90;;;;;;;;;;10142632;28;20459;-68
2023/10/12 20:49:38;;;;;;;38.20;25.60;;;;;;;;;;10140700;28;20043;-69
2023/10/12 20:54:41;;;;;;;36.40;25.27;;;;;;;;;;10139919;28;20071;-67
2023/10/12 20:59:36;;;;;;;42.03;27.23;;;;;;;;;;10142756;28;20044;-69
2023/10/12 21:04:31;;;;;;;34.63;24.63;;;;;;;;;;10142539;28;20131;-68
2023/10/12 21:09:30;;;;;;;41.90;26.55;;;;;;;;;;10142720;28;20044;-67
2023/10/12 21:14:24;;;;;;;;;;;;;;;;;;10144317;28;20123;-67
2023/10/12 21:19:20;;;;;;;32.08;25.70;;;;;;;;;;10142086;28;20258;-68
2023/10/12 21:24:18;;;;;;;36.22;26.38;;;;;;;;;;10142534;28;20040;-68
2023/10/12 21:29:17;;;;;;;38.80;26.63;;;;;;;;;;10142010;28;20858;-68
2023/10/12 21:34:11;;;;;;;37.25;26.58;;;;;;;;;;10142308;28;20110;-65
2023/10/12 21:39:09;;;;;;;37.25;27.92;;;;;;;;;;10142467;28;21471;-68
2023/10/12 21:44:03;;;;;;;39.03;27.50;;;;;;;;;;10140922;28;20640;-68
2023/10/12 21:48:57;;;;;;;33.45;25.40;;;;;;;;;;10141555;28;20051;-68
2023/10/12 21:53:53;;;;;;;34.78;25.63;;;;;;;;;;10143429;28;20052;-66
2023/10/12 21:58:45;;;;;;;34.20;25.90;;;;;;;;;;10141281;28;20048;-68
2023/10/12 22:03:38;;;;;;;36.42;26.50;;;;;;;;;;10144137;28;20052;-67
2023/10/12 22:08:31;;;;;;;37.53;25.35;;;;;;;;;;10139098;28;20403;-68
2023/10/12 22:13:36;;;;;;;39.92;28.40;;;;;;;;;;10142231;28;20037;-68
2023/10/12 22:18:30;;;;;;;32.45;26.52;;;;;;;;;;10140776;28;20180;-67
2023/10/12 22:23:23;;;;;;;33.35;26.08;;;;;;;;;;10140991;28;20150;-67
2023/10/12 22:28:14;;;;;;;40.53;29.65;;;;;;;;;;10139952;28;20041;-68
2023/10/12 22:33:06;;;;;;;42.88;28.42;;;;;;;;;;10139401;28;20063;-68
2023/10/12 22:37:58;;;;;;;36.25;28.35;;;;;;;;;;10137983;28;20076;-67
2023/10/12 22:42:50;;;;;;;40.80;29.00;;;;;;;;;;10139610;28;20590;-69
2023/10/12 22:47:45;;;;;;;33.05;26.00;;;;;;;;;;10138764;28;20063;-68
2023/10/12 22:52:39;;;;;;;41.78;27.98;;;;;;;;;;10139562;28;20347;-68
2023/10/12 22:57:30;;;;;;;40.67;25.35;;;;;;;;;;10139233;28;20044;-68
2023/10/12 23:02:22;;;;;;;35.50;25.45;;;;;;;;;;10138709;28;20061;-66
2023/10/12 23:07:14;;;;;;;39.50;24.67;;;;;;;;;;10138911;28;20381;-68
2023/10/12 23:12:11;;;;;;;30.00;24.70;;;;;;;;;;10137950;28;20032;-68
2023/10/12 23:17:04;;;;;;;34.30;24.15;;;;;;;;;;10136743;28;20062;-69
2023/10/12 23:22:00;;;;;;;33.30;23.65;;;;;;;;;;10120080;28;20091;-69
2023/10/12 23:26:52;;;;;;;32.08;24.08;;;;;;;;;;10137235;28;20090;-69
2023/10/12 23:31:44;;;;;;;34.42;23.40;;;;;;;;;;10137859;28;20048;-67
2023/10/12 23:36:37;;;;;;;36.13;22.70;;;;;;;;;;10117828;28;20373;-69
2023/10/12 23:41:32;;;;;;;29.42;20.85;;;;;;;;;;10138766;28;20114;-67
2023/10/12 23:46:25;;;;;;;27.63;22.02;;;;;;;;;;10135844;28;20032;-66
2023/10/12 23:51:17;;;;;;;33.85;21.23;;;;;;;;;;10136200;28;20040;-68
2023/10/12 23:56:14;;;;;;;33.70;22.83;;;;;;;;;;10137554;28;20063;-68
